createdAt,value
2018-10-09T00:02:23.431Z,14.17
2018-10-09T00:04:52.186Z,15.23
2018-10-09T00:07:21.082Z,15.27
2018-10-09T00:09:50.057Z,15.37
2018-10-09T00:12:18.781Z,16.47
2018-10-09T00:14:47.427Z,16.37
2018-10-09T00:17:16.331Z,16.50
2018-10-09T00:19:45.100Z,17.80
2018-10-09T00:22:13.713Z,16.17
2018-10-09T00:24:42.621Z,18.47
2018-10-09T00:27:11.465Z,17.50
2018-10-09T00:29:40.522Z,15.83
2018-10-09T00:32:09.203Z,17.57
2018-10-09T00:34:37.989Z,16.93
2018-10-09T00:37:06.643Z,16.33
2018-10-09T00:39:35.514Z,16.57
2018-10-09T00:42:04.254Z,18.93
2018-10-09T00:44:33.149Z,17.90
2018-10-09T00:47:01.949Z,16.87
2018-10-09T00:49:30.780Z,17.63
2018-10-09T00:51:59.694Z,17.53
2018-10-09T00:54:28.551Z,17.20
2018-10-09T00:56:57.830Z,17.27
2018-10-09T00:59:26.631Z,18.63
2018-10-09T01:01:55.757Z,17.37
2018-10-09T01:04:24.651Z,17.47
2018-10-09T01:06:53.909Z,16.30
2018-10-09T01:09:22.582Z,17.40
2018-10-09T01:11:51.356Z,15.13
2018-10-09T01:14:20.213Z,17.60
2018-10-09T01:16:49.228Z,15.87
2018-10-09T01:19:18.123Z,14.60
2018-10-09T01:21:46.918Z,15.07
2018-10-09T01:24:15.632Z,14.57
2018-10-09T01:26:44.408Z,16.60
2018-10-09T01:29:14.203Z,16.50
2018-10-09T01:31:43.081Z,15.27
2018-10-09T01:34:12.144Z,16.40
2018-10-09T01:36:41.090Z,16.30
2018-10-09T01:39:10.623Z,14.63
2018-10-09T01:41:39.760Z,16.23
2018-10-09T01:44:08.834Z,16.43
2018-10-09T01:46:37.729Z,16.30
2018-10-09T01:49:07.005Z,16.33
2018-10-09T01:51:35.922Z,14.00
2018-10-09T01:54:04.814Z,14.90
2018-10-09T01:56:33.729Z,15.87
2018-10-09T01:59:03.909Z,14.80
2018-10-09T02:01:33.059Z,14.83
2018-10-09T02:04:02.331Z,13.60
2018-10-09T02:06:32.492Z,14.97
2018-10-09T02:09:01.365Z,18.50
2018-10-09T02:11:30.444Z,17.13
2018-10-09T02:13:59.220Z,17.07
2018-10-09T02:16:28.251Z,15.97
2018-10-09T02:18:57.166Z,15.50
2018-10-09T02:21:26.041Z,15.87
2018-10-09T02:23:54.993Z,15.63
2018-10-09T02:26:24.190Z,16.07
2018-10-09T02:28:53.387Z,14.77
2018-10-09T02:31:22.421Z,14.93
2018-10-09T02:33:51.383Z,17.70
2018-10-09T02:36:20.855Z,16.87
2018-10-09T02:38:50.592Z,18.70
2018-10-09T02:41:19.804Z,17.57
2018-10-09T02:43:48.876Z,18.53
2018-10-09T02:46:17.812Z,20.63
2018-10-09T02:48:46.988Z,20.43
2018-10-09T02:51:15.803Z,21.33
2018-10-09T02:53:44.604Z,22.20
2018-10-09T02:56:13.453Z,21.20
2018-10-09T02:58:42.719Z,21.37
2018-10-09T03:01:11.930Z,22.80
2018-10-09T03:03:40.798Z,22.53
2018-10-09T03:06:09.839Z,22.53
2018-10-09T03:08:38.954Z,24.37
2018-10-09T03:11:08.063Z,21.60
2018-10-09T03:13:37.019Z,22.30
2018-10-09T03:16:05.967Z,22.00
2018-10-09T03:18:34.971Z,21.90
2018-10-09T03:21:03.686Z,23.63
2018-10-09T03:23:32.780Z,22.70
2018-10-09T03:26:01.514Z,20.97
2018-10-09T03:28:30.369Z,23.83
2018-10-09T03:30:59.584Z,22.20
2018-10-09T03:33:28.899Z,22.20
2018-10-09T03:35:58.321Z,23.30
2018-10-09T03:38:27.189Z,21.93
2018-10-09T03:40:56.205Z,21.10
2018-10-09T03:43:25.100Z,21.57
2018-10-09T03:45:53.973Z,20.97
2018-10-09T03:48:23.015Z,22.53
2018-10-09T03:50:53.045Z,19.80
2018-10-09T03:53:22.287Z,22.07
2018-10-09T03:55:52.163Z,20.27
2018-10-09T03:58:21.329Z,21.33
2018-10-09T04:00:50.286Z,20.97
2018-10-09T04:03:19.302Z,22.13
2018-10-09T04:05:48.307Z,19.20
2018-10-09T04:08:17.391Z,21.70
2018-10-09T04:10:46.585Z,20.30
2018-10-09T04:13:16.385Z,22.13
2018-10-09T04:15:49.215Z,22.70
2018-10-09T04:18:18.085Z,21.83
2018-10-09T04:20:47.128Z,22.40
2018-10-09T04:23:16.600Z,23.50
2018-10-09T04:25:45.575Z,20.87
2018-10-09T04:28:16.229Z,18.43
2018-10-09T04:30:45.145Z,21.70
2018-10-09T04:33:13.980Z,19.20
2018-10-09T04:35:42.961Z,17.83
2018-10-09T04:38:11.911Z,22.57
2018-10-09T04:40:40.946Z,19.60
2018-10-09T04:43:11.121Z,23.53
2018-10-09T04:45:40.699Z,21.23
2018-10-09T04:48:09.855Z,21.10
2018-10-09T04:50:38.646Z,20.07
2018-10-09T04:53:08.297Z,19.23
2018-10-09T04:55:37.376Z,23.17
2018-10-09T04:58:07.612Z,19.70
2018-10-09T05:00:37.275Z,22.10
2018-10-09T05:03:06.902Z,20.10
2018-10-09T05:05:36.139Z,21.30
2018-10-09T05:08:04.905Z,21.10
2018-10-09T05:10:36.025Z,20.87
2018-10-09T05:13:05.474Z,20.67
2018-10-09T05:15:36.457Z,21.27
2018-10-09T05:18:07.454Z,20.53
2018-10-09T05:23:40.937Z,25.53
2018-10-09T05:26:15.677Z,24.33
2018-10-09T05:28:56.863Z,22.40
2018-10-09T05:31:30.324Z,22.93
2018-10-09T05:34:36.479Z,23.10
2018-10-09T05:37:10.427Z,23.97
2018-10-09T05:39:49.892Z,19.07
2018-10-09T05:42:24.632Z,20.80
2018-10-09T05:45:01.117Z,19.73
2018-10-09T05:50:19.440Z,22.00
2018-10-09T05:53:00.903Z,19.93
2018-10-09T05:55:32.738Z,22.63
2018-10-09T05:58:09.063Z,19.87
2018-10-09T06:00:38.832Z,20.20
2018-10-09T06:03:11.749Z,18.73
2018-10-09T06:05:40.989Z,19.87
2018-10-09T06:08:09.873Z,18.27
2018-10-09T06:10:39.412Z,19.30
2018-10-09T06:13:08.744Z,18.27
2018-10-09T06:15:38.811Z,18.57
2018-10-09T06:18:07.409Z,18.03
2018-10-09T06:20:36.343Z,16.40
2018-10-09T06:23:05.403Z,17.37
2018-10-09T06:25:34.634Z,16.60
2018-10-09T06:28:03.428Z,14.93
2018-10-09T06:30:32.826Z,13.33
2018-10-09T06:33:04.995Z,13.27
2018-10-09T06:35:34.236Z,13.97
2018-10-09T06:38:03.902Z,12.70
2018-10-09T06:40:32.538Z,13.07
2018-10-09T06:43:01.685Z,12.73
2018-10-09T06:45:30.599Z,11.50
2018-10-09T06:47:59.434Z,12.43
2018-10-09T06:50:28.530Z,13.27
2018-10-09T06:52:57.522Z,12.50
2018-10-09T06:55:26.449Z,13.10
2018-10-09T06:57:55.751Z,12.83
2018-10-09T07:00:25.555Z,13.03
2018-10-09T07:02:55.068Z,13.33
2018-10-09T07:05:24.142Z,12.37
2018-10-09T07:10:34.610Z,13.03
2018-10-09T07:13:03.820Z,13.20
2018-10-09T07:15:32.929Z,13.43
2018-10-09T07:18:02.343Z,11.70
2018-10-09T07:20:32.039Z,10.83
2018-10-09T07:23:01.072Z,10.60
2018-10-09T07:25:30.147Z,10.80
2018-10-09T07:27:59.112Z,11.57
2018-10-09T07:30:27.989Z,9.70
2018-10-09T07:32:57.022Z,11.57
2018-10-09T07:35:26.321Z,10.30
2018-10-09T07:37:55.520Z,9.83
2018-10-09T07:40:24.821Z,11.80
2018-10-09T07:42:53.686Z,12.23
2018-10-09T07:45:22.947Z,11.37
2018-10-09T07:47:51.788Z,11.30
2018-10-09T07:50:20.590Z,11.93
2018-10-09T07:52:49.485Z,11.90
2018-10-09T07:55:18.517Z,11.57
2018-10-09T07:57:47.277Z,11.80
2018-10-09T08:00:16.092Z,11.83
2018-10-09T08:02:45.455Z,11.50
2018-10-09T08:05:14.484Z,12.00
2018-10-09T08:07:43.390Z,11.93
2018-10-09T08:10:12.237Z,12.73
2018-10-09T08:12:41.263Z,11.70
2018-10-09T08:15:10.481Z,11.37
2018-10-09T08:17:39.415Z,11.27
2018-10-09T08:20:08.068Z,10.43
2018-10-09T08:22:36.754Z,10.60
2018-10-09T08:25:05.442Z,9.80
2018-10-09T08:27:34.368Z,9.80
2018-10-09T08:30:03.259Z,9.30
2018-10-09T08:32:32.534Z,8.87
2018-10-09T08:35:01.182Z,8.50
2018-10-09T08:37:29.971Z,9.50
2018-10-09T08:39:59.244Z,9.90
2018-10-09T08:42:27.775Z,9.60
2018-10-09T08:44:57.151Z,8.47
2018-10-09T08:47:25.609Z,8.80
2018-10-09T08:49:54.408Z,10.53
2018-10-09T08:52:23.555Z,9.80
2018-10-09T08:54:52.459Z,10.90
2018-10-09T08:57:21.521Z,10.77
2018-10-09T08:59:51.208Z,10.13
2018-10-09T09:02:20.996Z,10.40
2018-10-09T09:04:49.613Z,10.57
2018-10-09T09:07:18.574Z,12.57
2018-10-09T09:09:47.740Z,12.53
2018-10-09T09:12:16.663Z,12.27
2018-10-09T09:14:45.600Z,11.97
2018-10-09T09:17:15.268Z,11.37
2018-10-09T09:19:43.843Z,12.43
2018-10-09T09:22:12.704Z,12.67
2018-10-09T09:24:41.579Z,12.70
2018-10-09T09:27:11.652Z,12.40
2018-10-09T09:29:40.715Z,12.57
2018-10-09T09:32:09.426Z,14.97
2018-10-09T09:34:38.322Z,14.90
2018-10-09T09:37:07.148Z,13.90
2018-10-09T09:39:35.623Z,13.60
2018-10-09T09:42:04.792Z,14.13
2018-10-09T09:44:33.433Z,15.87
2018-10-09T09:47:01.932Z,16.33
2018-10-09T09:49:31.044Z,14.53
2018-10-09T09:52:00.244Z,15.27
2018-10-09T09:54:29.556Z,16.03
2018-10-09T09:56:58.114Z,15.57
2018-10-09T09:59:27.508Z,15.80
2018-10-09T10:01:56.361Z,16.20
2018-10-09T10:04:25.759Z,17.43
2018-10-09T10:06:54.970Z,16.30
2018-10-09T10:09:23.758Z,16.40
2018-10-09T10:11:52.802Z,15.90
2018-10-09T10:14:21.785Z,15.57
2018-10-09T10:16:50.376Z,15.83
2018-10-09T10:19:19.388Z,16.40
2018-10-09T10:21:48.001Z,16.27
2018-10-09T10:24:16.636Z,16.53
2018-10-09T10:26:45.199Z,16.97
2018-10-09T10:29:14.200Z,16.70
2018-10-09T10:31:42.739Z,16.70
2018-10-09T10:34:11.323Z,16.97
2018-10-09T10:36:39.949Z,17.83
2018-10-09T10:39:10.319Z,18.17
2018-10-09T10:41:39.102Z,17.00
2018-10-09T10:44:08.198Z,16.40
2018-10-09T10:46:37.532Z,17.47
2018-10-09T10:49:09.715Z,16.37
2018-10-09T10:51:38.672Z,17.47
2018-10-09T10:54:08.188Z,16.97
2018-10-09T10:56:37.263Z,16.70
2018-10-09T10:59:06.307Z,16.77
2018-10-09T11:01:35.631Z,17.77
2018-10-09T11:04:05.145Z,16.63
2018-10-09T11:06:34.055Z,17.27
2018-10-09T11:09:03.151Z,15.93
2018-10-09T11:11:32.143Z,16.23
2018-10-09T11:14:00.797Z,16.50
2018-10-09T11:16:29.704Z,15.43
2018-10-09T11:18:58.645Z,16.20
2018-10-09T11:21:28.005Z,16.57
2018-10-09T11:23:56.895Z,16.43
2018-10-09T11:26:26.010Z,16.07
2018-10-09T11:28:54.628Z,14.90
2018-10-09T11:31:23.787Z,16.83
2018-10-09T11:33:54.181Z,17.53
2018-10-09T11:36:24.313Z,16.53
2018-10-09T11:38:52.988Z,17.83
2018-10-09T11:41:22.114Z,15.77
2018-10-09T11:43:53.484Z,16.37
2018-10-09T11:46:22.285Z,16.57
2018-10-09T11:48:52.328Z,16.67
2018-10-09T11:51:21.205Z,15.77
2018-10-09T11:53:49.919Z,14.60
2018-10-09T11:56:18.573Z,13.50
2018-10-09T11:58:47.332Z,15.87
2018-10-09T12:01:16.448Z,16.17
2018-10-09T12:03:45.059Z,15.37
2018-10-09T12:06:14.013Z,15.77
2018-10-09T12:08:42.963Z,16.73
2018-10-09T12:11:16.964Z,17.03
2018-10-09T12:13:49.794Z,16.27
2018-10-09T12:16:24.083Z,15.83
2018-10-09T12:19:03.850Z,16.07
2018-10-09T12:21:35.479Z,15.00
2018-10-09T12:24:06.297Z,15.23
2018-10-09T12:26:35.266Z,14.57
2018-10-09T12:29:05.398Z,14.43
2018-10-09T12:31:37.268Z,15.90
2018-10-09T12:34:06.850Z,15.50
2018-10-09T12:36:35.840Z,14.73
2018-10-09T12:39:08.161Z,16.30
2018-10-09T12:41:37.165Z,15.70
2018-10-09T12:44:21.060Z,15.63
2018-10-09T12:46:49.583Z,13.83
2018-10-09T12:49:18.532Z,15.07
2018-10-09T12:51:56.462Z,14.90
2018-10-09T12:54:26.146Z,15.67
2018-10-09T12:56:59.494Z,15.57
2018-10-09T12:59:28.173Z,14.53
2018-10-09T13:01:57.781Z,14.63
2018-10-09T13:04:30.778Z,13.60
2018-10-09T13:07:00.077Z,15.00
2018-10-09T13:09:29.484Z,13.67
2018-10-09T13:11:58.179Z,14.03
2018-10-09T13:14:27.345Z,14.67
2018-10-09T13:16:56.182Z,13.10
2018-10-09T13:19:25.257Z,13.20
2018-10-09T13:21:54.164Z,13.07
2018-10-09T13:24:22.869Z,15.70
2018-10-09T13:26:53.862Z,12.60
2018-10-09T13:29:23.534Z,13.70
2018-10-09T13:31:52.333Z,13.70
2018-10-09T13:34:21.391Z,14.40
2018-10-09T13:36:54.443Z,13.33
2018-10-09T13:39:23.631Z,14.60
2018-10-09T13:41:52.319Z,15.10
2018-10-09T13:44:21.053Z,13.70
2018-10-09T13:46:50.329Z,14.57
2018-10-09T13:49:18.841Z,13.50
2018-10-09T13:51:50.632Z,13.90
2018-10-09T13:54:19.832Z,14.40
2018-10-09T13:56:49.668Z,14.90
2018-10-09T13:59:20.096Z,15.60
2018-10-09T14:01:50.347Z,13.73
2018-10-09T14:04:19.133Z,15.07
2018-10-09T14:06:48.348Z,13.30
2018-10-09T14:09:17.599Z,13.20
2018-10-09T14:11:47.290Z,13.40
2018-10-09T14:14:16.496Z,13.67
2018-10-09T14:16:45.407Z,14.20
2018-10-09T14:19:15.435Z,15.00
2018-10-09T14:21:46.183Z,14.27
2018-10-09T14:24:15.055Z,12.97
2018-10-09T14:26:46.790Z,13.77
2018-10-09T14:29:16.147Z,14.57
2018-10-09T14:31:44.740Z,14.87
2018-10-09T14:34:13.646Z,14.00
2018-10-09T14:36:42.228Z,13.80
2018-10-09T14:39:11.640Z,13.57
2018-10-09T14:41:40.285Z,13.80
2018-10-09T14:44:09.581Z,14.27
2018-10-09T14:46:38.805Z,12.67
2018-10-09T14:49:07.952Z,13.53
2018-10-09T14:51:36.716Z,13.40
2018-10-09T14:54:05.517Z,12.90
2018-10-09T14:56:34.007Z,13.67
2018-10-09T14:59:02.872Z,13.23
2018-10-09T15:01:38.270Z,13.40
2018-10-09T15:04:08.710Z,13.63
2018-10-09T15:06:38.728Z,13.40
2018-10-09T15:09:10.475Z,12.77
2018-10-09T15:11:42.387Z,13.03
2018-10-09T15:14:13.151Z,13.60
2018-10-09T15:16:42.875Z,14.47
2018-10-09T15:19:11.452Z,14.47
2018-10-09T15:21:42.983Z,14.10
2018-10-09T15:24:12.022Z,14.30
2018-10-09T15:26:40.548Z,14.07
2018-10-09T15:29:09.306Z,13.10
2018-10-09T15:31:38.633Z,12.43
2018-10-09T15:34:08.370Z,14.13
2018-10-09T15:36:43.508Z,14.03
2018-10-09T15:39:18.540Z,14.17
2018-10-09T15:41:51.146Z,12.07
2018-10-09T15:44:21.549Z,12.17
2018-10-09T15:49:30.765Z,11.80
2018-10-09T15:52:00.483Z,13.37
2018-10-09T15:54:32.974Z,14.33
2018-10-09T15:57:02.848Z,13.10
2018-10-09T15:59:32.268Z,13.47
2018-10-09T16:02:01.464Z,11.60
2018-10-09T16:04:31.045Z,11.60
2018-10-09T16:07:00.767Z,12.30
2018-10-09T16:09:30.491Z,14.20
2018-10-09T16:11:59.190Z,13.17
2018-10-09T16:14:28.733Z,13.57
2018-10-09T16:16:57.988Z,13.67
2018-10-09T16:19:26.906Z,13.33
2018-10-09T16:21:59.560Z,11.57
2018-10-09T16:24:28.521Z,11.37
2018-10-09T16:26:57.512Z,12.17
2018-10-09T16:29:26.646Z,11.67
2018-10-09T16:31:56.052Z,14.03
2018-10-09T16:34:28.235Z,11.43
2018-10-09T16:36:57.706Z,10.60
2018-10-09T16:39:27.545Z,10.40
2018-10-09T16:41:57.982Z,9.27
2018-10-09T16:44:28.940Z,9.87
2018-10-09T16:46:58.895Z,10.30
2018-10-09T16:49:28.120Z,10.07
2018-10-09T16:51:57.109Z,12.67
2018-10-09T16:54:26.360Z,12.60
2018-10-09T16:56:55.329Z,11.40
2018-10-09T16:59:24.564Z,10.27
2018-10-09T17:01:53.653Z,9.30
2018-10-09T17:04:23.068Z,9.83
2018-10-09T17:06:52.568Z,9.03
2018-10-09T17:09:22.704Z,8.87
2018-10-09T17:11:51.656Z,9.13
2018-10-09T17:14:20.206Z,10.17
2018-10-09T17:16:48.999Z,9.43
2018-10-09T17:19:17.591Z,12.93
2018-10-09T17:21:46.252Z,21.70
2018-10-09T17:24:14.987Z,21.10
2018-10-09T17:26:43.870Z,20.57
2018-10-09T17:29:12.674Z,16.73
2018-10-09T17:31:41.448Z,13.83
2018-10-09T17:34:10.269Z,16.80
2018-10-09T17:36:39.122Z,14.50
2018-10-09T17:39:09.897Z,16.07
2018-10-09T17:41:39.003Z,14.00
2018-10-09T17:44:08.070Z,13.10
2018-10-09T17:46:37.109Z,14.97
2018-10-09T17:49:05.798Z,15.87
2018-10-09T17:51:34.581Z,21.17
2018-10-09T17:54:03.230Z,20.57
2018-10-09T17:56:32.089Z,21.67
2018-10-09T17:59:00.820Z,18.70
2018-10-09T18:01:29.700Z,17.80
2018-10-09T18:03:58.397Z,19.17
2018-10-09T18:06:27.391Z,17.67
2018-10-09T18:08:56.288Z,16.93
2018-10-09T18:11:24.839Z,16.87
2018-10-09T18:13:53.475Z,16.10
2018-10-09T18:16:22.211Z,15.13
2018-10-09T18:18:50.845Z,12.70
2018-10-09T18:21:19.660Z,13.93
2018-10-09T18:23:48.436Z,14.50
2018-10-09T18:26:17.190Z,18.17
2018-10-09T18:28:45.887Z,16.53
2018-10-09T18:31:14.512Z,16.53
2018-10-09T18:33:43.197Z,17.00
2018-10-09T18:36:11.973Z,17.40
2018-10-09T18:38:40.671Z,17.30
2018-10-09T18:41:09.575Z,15.60
2018-10-09T18:43:38.159Z,13.83
2018-10-09T18:46:06.915Z,16.57
2018-10-09T18:48:35.836Z,16.10
2018-10-09T18:51:04.467Z,14.40
2018-10-09T18:53:33.221Z,13.77
2018-10-09T18:56:01.843Z,13.90
2018-10-09T18:58:30.433Z,13.60
2018-10-09T19:00:59.097Z,12.93
2018-10-09T19:03:27.884Z,13.23
2018-10-09T19:05:56.487Z,14.03
2018-10-09T19:08:25.234Z,14.10
2018-10-09T19:10:54.063Z,15.90
2018-10-09T19:13:22.710Z,15.90
2018-10-09T19:15:51.382Z,15.40
2018-10-09T19:18:20.299Z,16.83
2018-10-09T19:20:48.923Z,15.57
2018-10-09T19:23:18.806Z,16.80
2018-10-09T19:25:47.463Z,17.87
2018-10-09T19:28:16.158Z,15.97
2018-10-09T19:30:45.103Z,16.30
2018-10-09T19:33:13.813Z,16.20
2018-10-09T19:35:42.524Z,16.00
2018-10-09T19:38:11.280Z,15.90
2018-10-09T19:40:40.016Z,17.33
2018-10-09T19:43:08.851Z,17.13
2018-10-09T19:45:37.566Z,15.60
2018-10-09T19:48:06.282Z,14.97
2018-10-09T19:50:34.979Z,16.00
2018-10-09T19:53:03.739Z,16.67
2018-10-09T19:55:32.528Z,15.10
2018-10-09T19:58:01.163Z,15.90
2018-10-09T20:00:29.879Z,13.27
2018-10-09T20:02:58.507Z,13.80
2018-10-09T20:05:27.297Z,14.00
2018-10-09T20:07:55.940Z,13.37
2018-10-09T20:10:24.862Z,16.00
2018-10-09T20:12:53.556Z,17.47
2018-10-09T20:15:22.212Z,14.80
2018-10-09T20:17:50.854Z,16.43
2018-10-09T20:20:19.908Z,15.93
2018-10-09T20:22:48.918Z,15.10
2018-10-09T20:25:17.654Z,15.30
2018-10-09T20:27:46.370Z,14.80
2018-10-09T20:30:15.086Z,15.87
2018-10-09T20:32:43.647Z,18.53
2018-10-09T20:35:12.327Z,18.17
2018-10-09T20:37:40.973Z,17.87
2018-10-09T20:40:09.685Z,20.07
2018-10-09T20:42:38.342Z,18.63
2018-10-09T20:45:07.177Z,21.07
2018-10-09T20:47:41.171Z,21.77
2018-10-09T20:50:09.850Z,19.50
2018-10-09T20:52:38.504Z,20.30
2018-10-09T20:55:07.519Z,19.93
2018-10-09T20:57:36.135Z,18.60
2018-10-09T21:00:05.218Z,19.17
2018-10-09T21:02:34.187Z,21.30
2018-10-09T21:05:02.963Z,21.77
2018-10-09T21:07:31.696Z,24.67
2018-10-09T21:10:00.472Z,19.77
2018-10-09T21:12:29.127Z,23.30
2018-10-09T21:14:57.857Z,26.50
2018-10-09T21:17:26.755Z,25.40
2018-10-09T21:19:55.435Z,23.07
2018-10-09T21:22:24.090Z,21.80
2018-10-09T21:24:52.785Z,25.50
2018-10-09T21:27:21.581Z,24.63
2018-10-09T21:29:50.367Z,22.93
2018-10-09T21:32:19.017Z,23.37
2018-10-09T21:34:47.966Z,24.87
2018-10-09T21:37:17.055Z,25.47
2018-10-09T21:39:46.457Z,26.87
2018-10-09T21:42:16.592Z,28.00
2018-10-09T21:44:45.267Z,26.53
2018-10-09T21:47:14.063Z,29.00
2018-10-09T21:49:42.759Z,31.40
2018-10-09T21:52:12.476Z,29.30
2018-10-09T21:54:41.295Z,26.97
2018-10-09T21:57:10.105Z,30.57
2018-10-09T21:59:38.860Z,28.50
2018-10-09T22:02:07.796Z,28.43
2018-10-09T22:04:36.652Z,29.83
2018-10-09T22:07:05.606Z,28.90
2018-10-09T22:09:34.322Z,28.57
2018-10-09T22:12:02.977Z,29.43
2018-10-09T22:14:31.653Z,28.93
2018-10-09T22:17:00.328Z,30.63
2018-10-09T22:19:29.161Z,31.27
2018-10-09T22:21:57.836Z,30.57
2018-10-09T22:24:26.892Z,33.40
2018-10-09T22:26:55.785Z,32.10
2018-10-09T22:29:24.605Z,32.97
2018-10-09T22:31:53.341Z,34.30
2018-10-09T22:34:22.275Z,33.50
2018-10-09T22:36:51.071Z,38.17
2018-10-09T22:39:19.847Z,35.17
2018-10-09T22:41:48.586Z,35.67
2018-10-09T22:44:17.460Z,36.17
2018-10-09T22:46:46.352Z,34.37
2018-10-09T22:49:15.209Z,37.93
2018-10-09T22:51:44.066Z,36.50
2018-10-09T22:54:18.423Z,34.20
2018-10-09T22:56:50.245Z,36.17
2018-10-09T22:59:22.812Z,37.70
2018-10-09T23:01:51.565Z,37.93
2018-10-09T23:04:20.341Z,39.77
2018-10-09T23:06:49.135Z,37.60
2018-10-09T23:09:17.892Z,37.70
2018-10-09T23:11:46.868Z,39.07
2018-10-09T23:14:16.695Z,38.43
2018-10-09T23:16:45.417Z,41.93
2018-10-09T23:19:14.268Z,41.00
2018-10-09T23:21:43.028Z,38.73
2018-10-09T23:24:11.764Z,41.33
2018-10-09T23:26:40.498Z,43.10
2018-10-09T23:29:09.321Z,41.50
2018-10-09T23:31:44.710Z,41.50
2018-10-09T23:34:13.427Z,43.37
2018-10-09T23:36:42.195Z,42.90
2018-10-09T23:39:11.098Z,43.40
2018-10-09T23:41:39.831Z,46.10
2018-10-09T23:44:08.627Z,42.57
2018-10-09T23:46:37.462Z,41.60
2018-10-09T23:49:06.538Z,45.63
2018-10-09T23:51:35.254Z,43.07
2018-10-09T23:54:04.288Z,44.53
2018-10-09T23:56:33.265Z,46.43
2018-10-09T23:59:02.041Z,46.13
